Time;durP1;ratioP1;P1;durP2;ratioP2;P2;SDS_P1;SDS_P2;PMS_P1;PMS_P2;Temp;Humidity;BMP_temperature;BMP_pressure;BME280_temperature;BME280_humidity;BME280_pressure;Samples;Min_cycle;Max_cycle;Signal;HPM_P1;HPM_P2
2022/08/13 00:00:14;;;;;;;21.00;5.35;;;;;;;19.44;53.09;100578.19;5032709;28;20040;-52
2022/08/13 00:02:42;;;;;;;14.02;5.88;;;;;;;19.39;53.63;100569.66;5032739;28;20029;-52
2022/08/13 00:05:09;;;;;;;16.10;6.07;;;;;;;19.38;53.70;100586.13;5039799;28;20076;-50
2022/08/13 00:07:36;;;;;;;20.40;6.35;;;;;;;19.35;53.89;100577.31;5052810;28;20037;-48
2022/08/13 00:10:05;;;;;;;19.80;6.75;;;;;;;19.36;54.01;100580.84;5052386;28;20029;-51
2022/08/13 00:15:25;;;;;;;23.48;6.82;;;;;;;19.37;53.98;100571.69;5032843;28;20401;-50
2022/08/13 00:17:51;;;;;;;24.80;7.20;;;;;;;19.30;54.81;100568.81;5033048;28;20120;-47
2022/08/13 00:20:19;;;;;;;22.77;7.35;;;;;;;19.30;54.69;100567.94;5049563;28;20112;-53
2022/08/13 00:22:45;;;;;;;29.33;7.72;;;;;;;19.21;55.03;100557.06;5052338;28;20044;-49
2022/08/13 00:25:10;;;;;;;25.33;6.55;;;;;;;19.23;54.79;100567.75;5051422;28;20028;-51
2022/08/13 00:27:36;;;;;;;21.63;7.32;;;;;;;19.18;55.41;100572.81;5032111;28;20488;-48
2022/08/13 00:30:05;;;;;;;26.90;6.75;;;;;;;19.20;55.26;100568.94;5031662;28;20029;-49
2022/08/13 00:32:31;;;;;;;23.60;7.05;;;;;;;19.13;55.29;100569.75;5041386;28;20029;-47
2022/08/13 00:34:58;;;;;;;21.27;7.65;;;;;;;19.10;56.30;100564.63;5051930;28;20385;-48
2022/08/13 00:37:25;;;;;;;26.75;8.02;;;;;;;19.06;56.26;100564.97;5052506;28;20025;-48
2022/08/13 00:39:52;;;;;;;23.67;7.05;;;;;;;19.04;56.38;100564.25;5045622;28;20083;-50
2022/08/13 00:42:22;;;;;;;27.58;8.30;;;;;;;19.08;56.83;100565.66;5031684;28;20493;-50
2022/08/13 00:44:47;;;;;;;31.85;8.43;;;;;;;18.94;57.05;100550.78;5030681;28;20057;-49
2022/08/13 00:50:00;;;;;;;27.88;7.85;;;;;;;18.96;57.14;100553.31;5051828;28;20029;-52
2022/08/13 00:52:30;;;;;;;36.97;8.60;;;;;;;18.93;57.33;100557.22;5048491;28;20053;-66
2022/08/13 00:55:02;;;;;;;35.15;8.43;;;;;;;18.92;57.52;100551.94;5031686;28;20075;-66
2022/08/13 00:57:29;;;;;;;35.75;9.18;;;;;;;18.88;57.60;100556.84;5031943;28;20164;-48
2022/08/13 00:59:55;;;;;;;30.00;8.52;;;;;;;18.85;58.39;100553.63;5046194;28;20056;-50
2022/08/13 01:02:22;;;;;;;35.38;9.05;;;;;;;18.82;58.33;100557.47;5050478;28;20128;-49
2022/08/13 01:04:47;;;;;;;43.42;9.23;;;;;;;18.81;58.53;100553.06;5045096;28;20029;-48
2022/08/13 01:07:18;;;;;;;29.83;8.70;;;;;;;18.84;58.58;100557.34;5031504;28;20029;-47
2022/08/13 01:09:44;;;;;;;36.33;9.65;;;;;;;18.76;58.53;100548.13;5031659;28;20029;-52
2022/08/13 01:12:13;;;;;;;27.80;9.50;;;;;;;18.76;58.77;100558.97;5048018;28;20045;-53
2022/08/13 01:14:41;;;;;;;28.63;8.82;;;;;;;18.73;59.20;100553.03;5051482;28;20033;-52
2022/08/13 01:17:11;;;;;;;37.97;9.27;;;;;;;18.75;58.77;100549.13;5042197;28;20083;-47
2022/08/13 01:19:39;;;;;;;33.42;9.48;;;;;;;18.71;58.98;100547.75;5031368;28;20029;-47
2022/08/13 01:22:05;;;;;;;26.42;9.13;;;;;;;18.67;59.17;100546.38;5030178;28;20041;-49
2022/08/13 01:24:30;;;;;;;33.60;9.80;;;;;;;18.65;59.60;100545.69;5029930;28;20037;-46
2022/08/13 01:26:57;;;;;;;38.83;9.45;;;;;;;18.63;59.63;100547.72;5031311;28;20034;-48
2022/08/13 01:29:24;;;;;;;31.90;10.30;;;;;;;18.59;59.99;100543.63;5034045;28;20035;-48
2022/08/13 01:31:51;;;;;;;32.95;9.27;;;;;;;18.56;59.94;100541.19;5050980;28;20037;-50
2022/08/13 01:34:18;;;;;;;37.83;10.15;;;;;;;18.54;60.41;100535.94;5051020;28;20040;-49
2022/08/13 01:36:46;;;;;;;32.55;9.63;;;;;;;18.56;60.42;100550.19;5049355;28;20112;-48
2022/08/13 01:39:13;;;;;;;39.05;10.00;;;;;;;18.56;60.53;100546.63;5050668;28;20502;-51
2022/08/13 01:41:38;;;;;;;36.95;9.95;;;;;;;18.55;60.18;100536.78;5051144;28;20366;-51
2022/08/13 01:44:05;;;;;;;36.67;10.48;;;;;;;18.56;60.57;100538.47;5042673;28;20060;-51
2022/08/13 01:52:06;;;;;;;27.58;9.80;;;;;;;18.55;59.96;100531.34;5047182;28;20036;-51
2022/08/13 01:54:36;;;;;;;35.20;10.38;;;;;;;18.61;60.46;100545.13;5050931;28;20494;-47
2022/08/13 01:57:05;;;;;;;39.10;10.32;;;;;;;18.58;60.37;100541.91;5042319;28;20034;-62
2022/08/13 01:59:34;;;;;;;38.40;10.20;;;;;;;18.58;60.68;100550.06;5032821;28;20522;-53
2022/08/13 02:02:01;;;;;;;38.03;10.75;;;;;;;18.53;60.73;100533.38;5032265;28;20037;-63
2022/08/13 02:04:28;;;;;;;39.72;10.23;;;;;;;18.40;60.76;100515.69;5031221;28;20030;-49
2022/08/13 02:06:54;;;;;;;30.52;9.88;;;;;;;18.47;60.74;100521.34;5030867;28;20461;-50
2022/08/13 02:09:21;;;;;;;34.13;9.88;;;;;;;18.56;61.07;100541.19;5031640;28;20926;-47
2022/08/13 02:11:48;;;;;;;37.80;10.23;;;;;;;18.54;60.86;100533.22;5029557;28;20055;-54
2022/08/13 02:14:13;;;;;;;29.75;10.02;;;;;;;18.56;61.44;100546.63;5039440;28;20037;-49
2022/08/13 02:16:39;;;;;;;36.92;10.43;;;;;;;18.57;61.25;100540.22;5050679;28;20040;-53
2022/08/13 02:19:07;;;;;;;33.60;10.85;;;;;;;18.62;61.15;100543.28;5050646;28;20025;-55
2022/08/13 02:21:35;;;;;;;38.85;10.57;;;;;;;18.65;60.90;100540.25;5038581;28;20111;-48
2022/08/13 02:24:03;;;;;;;27.17;9.60;;;;;;;18.68;61.13;100545.38;5030899;28;20029;-66
2022/08/13 02:26:32;;;;;;;32.35;10.20;;;;;;;18.72;61.10;100541.31;5033499;28;20167;-52
2022/08/13 02:28:59;;;;;;;35.13;10.80;;;;;;;18.77;60.83;100541.69;5050791;28;20065;-51
2022/08/13 02:31:26;;;;;;;27.98;9.45;;;;;;;18.79;60.81;100536.94;5050460;28;20036;-46
2022/08/13 02:33:52;;;;;;;28.30;10.00;;;;;;;18.84;60.69;100536.47;5048734;28;20178;-51
2022/08/13 02:36:21;;;;;;;30.08;10.02;;;;;;;18.92;60.58;100541.09;5050450;28;20477;-50
2022/08/13 02:39:00;;;;;;;27.30;9.98;;;;;;;19.04;60.55;100538.97;5042985;28;20394;-51
2022/08/13 02:41:38;;;;;;;30.75;10.27;;;;;;;19.04;60.13;100537.09;5030679;28;20038;-51
2022/08/13 02:44:08;;;;;;;32.67;9.90;;;;;;;19.12;59.98;100543.59;5030503;28;20021;-48
2022/08/13 02:46:33;;;;;;;22.92;9.63;;;;;;;19.19;59.87;100528.38;5041726;28;20053;-48
2022/08/13 02:49:01;;;;;;;27.40;9.57;;;;;;;19.26;59.82;100537.53;5050316;28;20061;-47
2022/08/13 02:51:28;;;;;;;28.30;9.88;;;;;;;19.34;59.68;100540.31;5047125;28;20052;-57
2022/08/13 02:53:53;;;;;;;22.15;9.35;;;;;;;19.42;59.30;100539.50;5033319;28;20038;-48
2022/08/13 02:56:18;;;;;;;28.95;9.85;;;;;;;19.49;59.10;100537.81;5034183;28;20044;-50
2022/08/13 02:58:45;;;;;;;27.90;10.48;;;;;;;19.63;58.46;100541.75;5047032;28;20037;-48
2022/08/13 03:01:14;;;;;;;25.15;9.68;;;;;;;19.77;58.16;100552.97;5054096;28;20505;-48
2022/08/13 03:03:40;;;;;;;33.72;10.57;;;;;;;19.84;58.19;100543.16;5053884;28;20025;-51
2022/08/13 03:06:08;;;;;;;34.78;10.75;;;;;;;19.95;57.90;100544.75;5037264;28;20036;-50
2022/08/13 03:08:35;;;;;;;34.33;10.63;;;;;;;20.06;57.87;100551.72;5034070;28;20037;-53
2022/08/13 03:11:00;;;;;;;25.63;9.93;;;;;;;20.16;57.37;100544.25;5034058;28;20069;-49
2022/08/13 03:13:32;;;;;;;34.13;10.05;;;;;;;20.30;57.13;100547.31;5051479;28;20103;-56
2022/08/13 03:16:00;;;;;;;30.88;10.02;;;;;;;20.25;56.69;100520.63;5053790;28;20032;-49
2022/08/13 03:18:26;;;;;;;24.27;10.35;;;;;;;20.54;56.61;100548.31;5051743;28;20064;-49
2022/08/13 03:20:53;;;;;;;23.63;10.02;;;;;;;20.64;56.36;100535.38;5033527;28;20488;-49
2022/08/13 03:23:22;;;;;;;28.30;9.73;;;;;;;20.83;55.60;100538.78;5033685;28;20030;-48
2022/08/13 03:25:47;;;;;;;35.40;10.95;;;;;;;20.98;55.18;100541.63;5046576;28;20043;-52
2022/08/13 03:28:13;;;;;;;28.48;10.48;;;;;;;21.13;55.02;100537.16;5053367;28;20381;-47
2022/08/13 03:30:41;;;;;;;27.90;10.18;;;;;;;21.28;54.31;100529.09;5053326;28;20101;-51
2022/08/13 03:33:13;;;;;;;29.65;10.25;;;;;;;21.51;54.23;100531.03;5040256;28;20044;-52
2022/08/13 03:35:39;;;;;;;31.85;11.05;;;;;;;21.46;53.71;100517.06;5033328;28;20044;-51
2022/08/13 03:38:08;;;;;;;35.22;11.43;;;;;;;21.72;53.09;100527.69;5033619;28;20112;-67
2022/08/13 03:43:20;;;;;;;32.78;10.63;;;;;;;22.14;52.58;100536.41;5034850;28;20029;-49
2022/08/13 03:45:46;;;;;;;23.17;10.32;;;;;;;22.27;51.17;100543.13;5050988;28;20033;-62
2022/08/13 03:48:13;;;;;;;28.67;10.40;;;;;;;22.52;50.74;100541.06;5052955;28;20049;-53
2022/08/13 03:50:43;;;;;;;20.90;9.65;;;;;;;23.26;48.98;100539.44;5052639;28;20465;-48
2022/08/13 03:53:10;;;;;;;26.38;10.10;;;;;;;24.49;45.65;100538.63;5036011;28;20081;-48
2022/08/13 03:55:37;;;;;;;21.00;9.57;;;;;;;25.76;42.10;100529.41;5033370;28;20048;-52
2022/08/13 03:58:05;;;;;;;27.85;9.65;;;;;;;26.92;39.21;100533.91;5040546;28;20028;-52
2022/08/13 04:00:33;;;;;;;22.55;9.38;;;;;;;27.84;37.07;100530.16;5052700;28;20131;-49
2022/08/13 04:03:00;;;;;;;21.77;8.93;;;;;;;28.73;34.98;100528.38;5052568;28;20031;-49
2022/08/13 04:05:26;;;;;;;33.83;9.55;;;;;;;29.54;33.66;100509.03;5040806;28;20096;-49
2022/08/13 04:07:52;;;;;;;25.17;8.93;;;;;;;30.56;31.67;100519.34;5032801;28;20037;-50
2022/08/13 04:10:18;;;;;;;17.98;9.10;;;;;;;31.47;29.68;100520.78;5032890;28;20037;-49
2022/08/13 04:12:44;;;;;;;17.98;7.95;;;;;;;32.22;28.82;100527.13;5052463;28;20080;-52
2022/08/13 04:15:10;;;;;;;20.95;8.90;;;;;;;32.87;27.71;100520.38;5052591;28;20048;-49
2022/08/13 04:17:37;;;;;;;25.55;8.95;;;;;;;33.49;26.47;100532.28;5040505;28;20067;-51
2022/08/13 04:20:06;;;;;;;20.42;8.55;;;;;;;34.19;25.46;100520.50;5032667;28;20068;-49
2022/08/13 04:22:33;;;;;;;18.85;8.63;;;;;;;34.66;24.61;100510.53;5034193;28;20536;-47
2022/08/13 04:24:58;;;;;;;19.08;8.10;;;;;;;35.31;23.72;100526.16;5051999;28;20047;-49
2022/08/13 04:27:24;;;;;;;18.90;7.85;;;;;;;35.91;22.02;100515.44;5050858;28;20389;-50
2022/08/13 04:29:51;;;;;;;14.43;7.07;;;;;;;36.51;21.44;100516.84;5050097;28;20442;-49
2022/08/13 04:32:22;;;;;;;17.65;7.75;;;;;;;37.09;20.88;100520.34;5051955;28;20041;-46
2022/08/13 04:34:47;;;;;;;17.33;7.72;;;;;;;37.63;20.32;100525.13;5050565;28;20096;-47
2022/08/13 04:37:13;;;;;;;15.13;7.53;;;;;;;38.09;19.46;100525.09;5052023;28;20457;-49
2022/08/13 04:39:38;;;;;;;10.32;7.63;;;;;;;38.52;19.31;100519.69;5051763;28;20082;-65
2022/08/13 04:42:07;;;;;;;16.27;8.05;;;;;;;38.96;18.75;100523.41;5043893;28;20121;-51
2022/08/13 04:44:33;;;;;;;17.90;8.75;;;;;;;39.30;17.77;100525.19;5031735;28;20502;-49
2022/08/13 04:46:59;;;;;;;14.27;8.45;;;;;;;39.65;17.57;100524.16;5031835;28;20029;-47
2022/08/13 04:49:24;;;;;;;13.20;8.13;;;;;;;39.99;17.11;100512.72;5032636;28;20102;-50
2022/08/13 04:51:50;;;;;;;16.67;9.27;;;;;;;40.51;16.65;100505.34;5031733;28;20034;-46
2022/08/13 04:54:16;;;;;;;14.35;8.20;;;;;;;41.08;16.59;100512.66;5032483;28;20454;-54
2022/08/13 04:56:41;;;;;;;12.65;8.50;;;;;;;41.52;16.19;100507.50;5032133;28;20033;-50
2022/08/13 04:59:08;;;;;;;15.52;9.45;;;;;;;41.84;15.60;100502.78;5031837;28;20036;-48
2022/08/13 05:01:33;;;;;;;17.50;8.65;;;;;;;42.47;15.57;100511.34;5032461;28;20037;-50
2022/08/13 05:03:59;;;;;;;18.98;9.43;;;;;;;43.31;14.13;100502.19;5031347;28;20029;-47
2022/08/13 05:06:26;;;;;;;16.02;8.23;;;;;;;44.17;13.46;100496.84;5031611;28;20513;-49
2022/08/13 05:08:52;;;;;;;17.88;8.10;;;;;;;44.98;12.81;100506.66;5045174;28;20067;-59
2022/08/13 05:11:19;;;;;;;11.57;7.78;;;;;;;45.74;11.89;100501.09;5051393;28;20501;-49
2022/08/13 05:13:46;;;;;;;10.27;7.10;;;;;;;46.13;11.65;100504.56;5051643;28;20481;-49
2022/08/13 05:16:17;;;;;;;13.60;6.30;;;;;;;46.62;11.41;100500.16;5033624;28;20076;-50
2022/08/13 05:18:45;;;;;;;13.05;7.35;;;;;;;47.04;11.11;100495.41;5031458;28;20454;-52
2022/08/13 05:21:13;;;;;;;9.68;5.97;;;;;;;46.78;10.87;100500.25;5031711;28;20029;-66
2022/08/13 05:23:41;;;;;;;9.70;5.80;;;;;;;46.94;10.54;100491.06;5051737;28;20055;-51
2022/08/13 05:26:08;;;;;;;9.98;5.57;;;;;;;47.48;10.30;100491.88;5051500;28;20099;-49
2022/08/13 05:28:35;;;;;;;8.10;5.72;;;;;;;48.05;10.08;100487.03;5048878;28;20037;-52
2022/08/13 05:31:01;;;;;;;8.57;4.63;;;;;;;48.25;9.54;100485.13;5038251;28;20033;-48
2022/08/13 05:33:29;;;;;;;7.60;4.28;;;;;;;48.64;9.53;100495.81;5045203;28;20102;-52
2022/08/13 05:35:58;;;;;;;7.05;3.83;;;;;;;48.92;8.78;100483.50;5036546;28;20366;-50
2022/08/13 05:38:27;;;;;;;8.82;4.72;;;;;;;49.13;8.71;100490.88;5030853;28;20065;-50
2022/08/13 05:40:58;;;;;;;4.60;4.00;;;;;;;49.06;8.71;100493.56;5031256;28;20030;-49
2022/08/13 05:43:25;;;;;;;10.23;4.68;;;;;;;49.69;8.42;100488.84;5041334;28;20029;-52
2022/08/13 05:45:59;;;;;;;7.25;3.88;;;;;;;50.10;7.95;100491.25;5051015;28;20123;-54
2022/08/13 05:48:29;;;;;;;7.43;4.10;;;;;;;50.87;7.52;100502.69;5049367;28;20427;-51
2022/08/13 05:50:59;;;;;;;7.43;3.55;;;;;;;50.90;7.55;100490.53;5051066;28;20040;-52
2022/08/13 05:53:26;;;;;;;6.05;3.90;;;;;;;50.37;7.50;100497.81;5051166;28;20025;-49
2022/08/13 05:55:53;;;;;;;6.05;3.60;;;;;;;50.19;7.81;100493.84;5044111;28;20087;-50
2022/08/13 05:58:20;;;;;;;4.85;3.50;;;;;;;50.59;7.63;100508.78;5030711;28;20084;-53
2022/08/13 06:03:31;;;;;;;3.80;3.38;;;;;;;49.65;7.84;100497.28;5035360;28;20033;-50
2022/08/13 06:06:02;;;;;;;5.82;3.50;;;;;;;50.01;8.13;100494.34;5050964;28;20072;-51
2022/08/13 06:08:35;;;;;;;4.82;3.65;;;;;;;50.63;7.51;100504.75;5050754;28;20040;-48
2022/08/13 06:11:08;;;;;;;3.67;3.30;;;;;;;51.44;7.22;100501.88;5043204;28;20108;-52
2022/08/13 06:13:38;;;;;;;3.40;3.10;;;;;;;52.70;6.23;100497.81;5030828;28;20095;-52
2022/08/13 06:16:06;;;;;;;4.47;3.50;;;;;;;53.23;5.96;100503.03;5031025;28;20061;-51
2022/08/13 06:18:34;;;;;;;4.00;3.58;;;;;;;53.05;6.45;100500.09;5042099;28;20147;-53
2022/08/13 06:21:01;;;;;;;3.30;3.00;;;;;;;53.29;5.94;100499.75;5050615;28;20033;-52
2022/08/13 06:23:29;;;;;;;5.88;2.78;;;;;;;53.66;5.67;100496.66;5050666;28;20450;-50
2022/08/13 06:25:57;;;;;;;2.92;2.50;;;;;;;53.37;5.71;100510.06;5034982;28;20087;-52
2022/08/13 06:28:29;;;;;;;3.33;2.80;;;;;;;53.28;5.75;100506.72;5032584;28;20041;-48
2022/08/13 06:31:04;;;;;;;4.60;2.92;;;;;;;53.28;5.78;100503.84;5041064;28;20021;-51
2022/08/13 06:33:33;;;;;;;2.75;2.55;;;;;;;51.94;6.07;100509.38;5054510;28;20513;-51
2022/08/13 06:36:05;;;;;;;4.28;2.67;;;;;;;51.02;7.09;100512.31;5054380;28;20174;-51
2022/08/13 06:38:33;;;;;;;2.10;2.00;;;;;;;51.44;6.53;100516.13;5033881;28;20037;-51
2022/08/13 06:40:59;;;;;;;2.10;2.00;;;;;;;52.16;5.85;100498.97;5034025;28;20040;-52
2022/08/13 06:43:40;;;;;;;2.42;2.05;;;;;;;53.03;5.31;100513.13;5034999;28;20378;-53
2022/08/13 06:46:06;;;;;;;2.92;2.03;;;;;;;53.77;4.79;100508.13;5033936;28;20029;-50
2022/08/13 06:48:34;;;;;;;2.60;2.50;;;;;;;54.22;4.91;100487.75;5034587;28;20124;-50
2022/08/13 06:51:01;;;;;;;4.80;2.40;;;;;;;54.96;4.87;100509.38;5034142;28;20377;-53
2022/08/13 06:53:27;;;;;;;3.72;2.90;;;;;;;54.75;4.82;100481.59;5033971;28;20048;-49
2022/08/13 06:55:53;;;;;;;3.65;3.28;;;;;;;54.37;5.20;100508.66;5034586;28;20505;-53
2022/08/13 06:58:25;;;;;;;3.33;3.08;;;;;;;54.41;4.95;100510.69;5033980;28;20359;-52
2022/08/13 07:00:53;;;;;;;3.53;3.22;;;;;;;54.36;4.66;100507.03;5035062;28;20032;-53
2022/08/13 07:03:19;;;;;;;3.90;2.95;;;;;;;54.25;4.80;100514.75;5033625;28;20036;-50
2022/08/13 07:05:45;;;;;;;3.67;3.38;;;;;;;54.01;4.93;100499.19;5034085;28;20030;-51
2022/08/13 07:08:11;;;;;;;6.47;3.70;;;;;;;53.52;5.35;100508.88;5033862;28;20029;-51
2022/08/13 07:11:21;;;;;;;3.78;3.30;;;;;;;53.15;5.44;100504.22;5034609;28;20136;-51
2022/08/13 07:13:37;;;;;;;4.25;3.50;;;;;;;53.29;5.26;100505.50;5033320;28;20525;-52
2022/08/13 07:16:03;;;;;;;4.18;3.40;;;;;;;53.42;5.26;100483.91;5032190;28;20033;-50
2022/08/13 07:18:30;;;;;;;3.50;3.20;;;;;;;53.78;4.91;100498.34;5033910;28;20030;-52
2022/08/13 07:20:56;;;;;;;5.38;3.30;;;;;;;54.24;4.69;100498.78;5033327;28;20061;-53
2022/08/13 07:23:21;;;;;;;3.97;3.65;;;;;;;54.54;4.66;100497.59;5034335;28;20116;-50
2022/08/13 07:25:48;;;;;;;5.10;3.58;;;;;;;55.31;4.66;100501.06;5033719;28;20026;-49
2022/08/13 07:28:15;;;;;;;4.28;3.88;;;;;;;55.72;4.13;100491.88;5040548;28;20095;-53
2022/08/13 07:30:45;;;;;;;4.20;3.90;;;;;;;56.03;4.11;100497.81;5053220;28;20032;-52
2022/08/13 07:33:13;;;;;;;4.63;4.28;;;;;;;56.03;4.26;100492.06;5052449;28;20032;-49
2022/08/13 07:35:38;;;;;;;4.93;4.55;;;;;;;56.79;3.49;100485.59;5033123;28;20530;-52
2022/08/13 07:38:04;;;;;;;7.45;5.00;;;;;;;57.54;3.21;100464.94;5033203;28;20453;-50
2022/08/13 07:40:31;;;;;;;6.15;4.72;;;;;;;58.02;3.20;100486.03;5043563;28;20036;-52
2022/08/13 07:42:58;;;;;;;5.93;5.43;;;;;;;57.81;3.13;100469.06;5052485;28;20028;-51
2022/08/13 07:45:24;;;;;;;6.13;5.57;;;;;;;57.76;3.08;100487.66;5050641;28;20119;-51
2022/08/13 07:47:50;;;;;;;6.30;5.80;;;;;;;57.70;2.98;100481.59;5032925;28;20120;-53
2022/08/13 07:50:17;;;;;;;6.43;5.88;;;;;;;57.57;2.83;100484.22;5033068;28;20599;-52
2022/08/13 07:52:43;;;;;;;7.28;6.85;;;;;;;57.37;3.05;100480.41;5036866;28;20041;-53
2022/08/13 07:55:08;;;;;;;7.00;6.30;;;;;;;57.27;3.34;100462.06;5036414;28;20496;-50
2022/08/13 07:57:36;;;;;;;6.70;6.20;;;;;;;56.33;3.62;100478.28;5032568;28;20025;-50
2022/08/13 08:00:05;;;;;;;6.65;6.25;;;;;;;55.19;3.87;100482.28;5047177;28;20079;-51
2022/08/13 08:02:32;;;;;;;5.95;5.45;;;;;;;54.70;4.24;100470.53;5050642;28;20040;-50
2022/08/13 08:04:58;;;;;;;6.95;6.25;;;;;;;54.13;4.37;100466.47;5043656;28;20061;-49
2022/08/13 08:07:27;;;;;;;6.03;5.35;;;;;;;52.97;5.02;100473.47;5052510;28;20040;-53
2022/08/13 08:09:53;;;;;;;5.03;4.45;;;;;;;51.90;5.83;100466.50;5044078;28;20108;-52
2022/08/13 08:12:37;;;;;;;6.25;4.10;;;;;;;51.61;5.71;100476.75;5052275;28;20140;-50
2022/08/13 08:15:09;;;;;;;6.30;3.92;;;;;;;51.41;6.10;100474.13;5038840;28;20056;-52
2022/08/13 08:17:34;;;;;;;5.78;3.67;;;;;;;49.56;6.77;100449.16;5031939;28;20155;-52
2022/08/13 08:20:02;;;;;;;6.05;3.50;;;;;;;47.25;8.34;100452.72;5032518;28;20033;-49
2022/08/13 08:22:30;;;;;;;4.22;3.28;;;;;;;44.90;9.23;100463.13;5034307;28;20253;-51
2022/08/13 08:24:56;;;;;;;3.55;3.10;;;;;;;42.70;10.48;100447.34;5051768;28;20465;-52
2022/08/13 08:27:25;;;;;;;5.38;3.05;;;;;;;40.80;12.43;100442.53;5051690;28;20059;-56
2022/08/13 08:29:52;;;;;;;7.40;3.38;;;;;;;39.36;14.19;100453.13;5037772;28;20029;-58
2022/08/13 08:32:18;;;;;;;4.38;3.80;;;;;;;38.16;15.07;100448.13;5032103;28;20536;-51
2022/08/13 08:34:47;;;;;;;9.43;3.42;;;;;;;37.24;16.34;100450.50;5035670;28;20223;-49
2022/08/13 08:42:35;;;;;;;7.38;3.80;;;;;;;36.56;16.68;100451.88;5051607;28;20044;-50
2022/08/13 08:42:52;;;;;;;5.43;3.80;;;;;;;35.44;18.34;100444.94;5031833;28;20049;-49
2022/08/13 08:45:20;;;;;;;6.80;3.25;;;;;;;35.13;18.77;100444.03;5031877;28;20370;-49
2022/08/13 08:47:48;;;;;;;9.40;3.70;;;;;;;34.71;18.98;100441.03;5036332;28;20082;-51
2022/08/13 08:50:26;;;;;;;7.57;3.50;;;;;;;34.10;19.55;100439.56;5050797;28;20436;-48
2022/08/13 08:55:37;;;;;;;;;;;;;;;34.25;18.46;100438.00;5050447;28;20176;-48
2022/08/13 08:58:04;;;;;;;8.75;4.18;;;;;;;33.11;20.42;100414.75;5051061;28;20050;-54
2022/08/13 09:00:31;;;;;;;6.72;3.67;;;;;;;33.03;20.67;100439.06;5048032;28;20112;-48
2022/08/13 09:02:57;;;;;;;7.25;3.58;;;;;;;32.96;21.07;100430.09;5031619;28;20029;-50
2022/08/13 09:05:25;;;;;;;7.50;3.83;;;;;;;32.75;21.35;100406.81;5031930;28;20044;-51
2022/08/13 09:07:52;;;;;;;5.70;3.47;;;;;;;32.90;21.32;100436.69;5032280;28;20029;-47
2022/08/13 09:10:20;;;;;;;7.72;3.75;;;;;;;32.92;21.08;100443.66;5031296;28;20064;-49
2022/08/13 09:12:48;;;;;;;6.35;3.85;;;;;;;32.87;21.04;100431.63;5036107;28;20049;-47
2022/08/13 09:15:17;;;;;;;5.05;3.45;;;;;;;32.81;20.99;100443.78;5051110;28;20124;-49
2022/08/13 09:17:45;;;;;;;4.38;3.38;;;;;;;32.81;21.56;100439.03;5032764;28;20446;-50
2022/08/13 09:20:16;;;;;;;5.00;3.15;;;;;;;32.89;21.17;100423.94;5038917;28;20025;-47
2022/08/13 09:22:44;;;;;;;12.45;3.45;;;;;;;32.90;21.30;100439.47;5051540;28;20121;-49
2022/08/13 09:25:16;;;;;;;4.53;3.70;;;;;;;32.84;20.82;100429.38;5051098;28;20036;-48
2022/08/13 09:27:43;;;;;;;8.30;4.10;;;;;;;32.45;21.70;100433.88;5037774;28;20037;-51
2022/08/13 09:30:10;;;;;;;6.03;3.80;;;;;;;32.31;21.36;100426.97;5031109;28;20033;-49
2022/08/13 09:32:36;;;;;;;6.30;3.50;;;;;;;32.19;21.86;100424.31;5031325;28;20040;-50
2022/08/13 09:35:04;;;;;;;7.45;4.03;;;;;;;32.13;21.83;100431.72;5046195;28;20033;-52
2022/08/13 09:37:31;;;;;;;6.57;3.63;;;;;;;32.18;21.92;100419.84;5050837;28;20465;-52
2022/08/13 09:40:06;;;;;;;6.22;3.75;;;;;;;32.41;21.46;100437.38;5044155;28;20037;-55
2022/08/13 09:42:59;;;;;;;5.95;3.47;;;;;;;32.30;21.18;100428.91;5031265;28;20029;-55
2022/08/13 09:45:27;;;;;;;3.35;2.70;;;;;;;31.87;21.37;100422.16;5032513;28;20054;-53
2022/08/13 09:47:57;;;;;;;5.65;3.15;;;;;;;31.65;21.92;100400.72;5050735;28;20085;-48
2022/08/13 09:50:24;;;;;;;8.80;3.25;;;;;;;31.67;21.81;100417.91;5050973;28;20064;-49
2022/08/13 09:52:52;;;;;;;3.53;3.22;;;;;;;31.59;21.82;100427.50;5048749;28;20029;-48
2022/08/13 09:55:22;;;;;;;5.32;3.42;;;;;;;31.50;22.20;100390.22;5050604;28;20119;-49
2022/08/13 09:57:59;;;;;;;7.63;3.67;;;;;;;31.68;21.61;100399.41;5046260;28;20029;-49
2022/08/13 10:00:30;;;;;;;7.40;3.65;;;;;;;31.98;21.26;100425.94;5049435;28;20033;-49
2022/08/13 10:02:59;;;;;;;8.63;3.47;;;;;;;32.04;21.34;100420.22;5052263;28;20037;-46
2022/08/13 10:05:34;;;;;;;6.20;3.17;;;;;;;32.02;21.64;100419.63;5041891;28;20150;-51
2022/08/13 10:08:05;;;;;;;5.60;3.70;;;;;;;31.96;21.47;100403.19;5034525;28;20037;-49
2022/08/13 10:10:32;;;;;;;7.05;3.30;;;;;;;31.84;21.64;100403.28;5045592;28;20393;-50
2022/08/13 10:12:59;;;;;;;5.53;3.25;;;;;;;31.82;21.46;100392.44;5054434;28;20068;-67
2022/08/13 10:15:26;;;;;;;5.00;3.45;;;;;;;31.79;21.51;100387.41;5040443;28;20393;-47
2022/08/13 10:17:59;;;;;;;5.75;3.72;;;;;;;32.00;21.64;100410.75;5034675;28;20542;-49
2022/08/13 10:20:30;;;;;;;9.07;3.65;;;;;;;32.05;21.85;100399.75;5035237;28;20469;-50
2022/08/13 10:22:58;;;;;;;4.63;3.90;;;;;;;32.08;21.75;100396.47;5048871;28;20037;-51
2022/08/13 10:25:25;;;;;;;5.65;3.38;;;;;;;32.13;21.38;100394.84;5054841;28;20110;-49
2022/08/13 10:27:51;;;;;;;8.48;3.50;;;;;;;31.95;21.35;100369.09;5048502;28;20393;-50
2022/08/13 10:30:18;;;;;;;4.45;3.20;;;;;;;32.01;21.50;100394.94;5034450;28;20029;-50
2022/08/13 10:32:44;;;;;;;6.25;3.30;;;;;;;31.98;21.63;100381.63;5034393;28;20473;-48
2022/08/13 10:35:09;;;;;;;6.70;3.47;;;;;;;31.83;22.01;100377.53;5050721;28;20094;-47
2022/08/13 10:37:53;;;;;;;7.15;2.95;;;;;;;31.98;21.67;100387.16;5054330;28;20025;-50
2022/08/13 10:40:20;;;;;;;6.85;3.50;;;;;;;31.70;21.81;100389.72;5044456;28;20986;-53
2022/08/13 10:42:46;;;;;;;6.60;2.97;;;;;;;31.53;21.98;100378.66;5034529;28;20036;-52
2022/08/13 10:45:14;;;;;;;7.45;3.28;;;;;;;31.50;22.28;100388.31;5033716;28;20021;-50
2022/08/13 10:47:49;;;;;;;6.68;3.53;;;;;;;31.49;22.34;100383.88;5054148;28;20043;-50
2022/08/13 10:50:16;;;;;;;7.45;3.95;;;;;;;31.27;22.10;100380.97;5054182;28;20036;-49
2022/08/13 10:52:42;;;;;;;6.40;4.00;;;;;;;31.00;22.67;100389.84;5040685;28;20142;-53
2022/08/13 10:55:12;;;;;;;4.07;3.40;;;;;;;30.58;22.63;100396.44;5033752;28;20117;-53
2022/08/13 10:57:43;;;;;;;4.88;3.30;;;;;;;30.49;23.29;100386.84;5037012;28;20041;-53
2022/08/13 11:00:11;;;;;;;8.45;3.15;;;;;;;30.43;23.68;100379.53;5054057;28;20037;-47
2022/08/13 11:02:37;;;;;;;3.45;2.80;;;;;;;30.58;23.23;100376.25;5052928;28;20029;-51
2022/08/13 11:05:06;;;;;;;9.15;3.10;;;;;;;30.88;23.24;100378.00;5033684;28;20042;-47
2022/08/13 11:07:33;;;;;;;8.13;3.80;;;;;;;31.00;22.76;100373.25;5035827;28;20087;-55
2022/08/13 11:09:59;;;;;;;5.13;3.47;;;;;;;31.05;22.78;100373.34;5047186;28;20029;-51
2022/08/13 11:12:25;;;;;;;5.15;3.67;;;;;;;31.15;22.75;100371.88;5033525;28;20376;-52
2022/08/13 11:14:51;;;;;;;4.95;3.53;;;;;;;31.04;22.83;100345.97;5033100;28;20037;-51
2022/08/13 11:17:18;;;;;;;11.82;3.47;;;;;;;31.26;22.63;100367.41;5051074;28;20111;-53
2022/08/13 11:19:46;;;;;;;5.65;3.70;;;;;;;31.13;22.15;100368.53;5053513;28;20037;-50
2022/08/13 11:22:12;;;;;;;14.93;3.55;;;;;;;30.74;23.04;100361.72;5052834;28;20040;-54
2022/08/13 11:24:37;;;;;;;5.63;3.53;;;;;;;30.51;23.07;100343.25;5033679;28;20045;-50
2022/08/13 11:27:04;;;;;;;6.78;3.40;;;;;;;30.59;23.44;100364.97;5033630;28;20025;-53
2022/08/13 11:29:31;;;;;;;9.75;3.92;;;;;;;30.70;23.27;100362.44;5044281;28;20444;-54
2022/08/13 11:31:57;;;;;;;22.80;4.90;;;;;;;30.76;23.27;100354.00;5053068;28;20033;-49
2022/08/13 11:34:25;;;;;;;6.32;3.55;;;;;;;30.84;23.09;100361.06;5050348;28;20033;-49
2022/08/13 11:36:51;;;;;;;5.95;3.65;;;;;;;30.79;23.56;100358.22;5046608;28;20366;-52
2022/08/13 11:39:17;;;;;;;5.57;3.17;;;;;;;30.75;23.18;100359.78;5053495;28;20030;-51
2022/08/13 11:41:43;;;;;;;8.20;3.40;;;;;;;30.57;23.23;100352.47;5053036;28;20496;-52
2022/08/13 11:44:08;;;;;;;4.00;3.10;;;;;;;30.28;23.32;100330.31;5036592;28;20484;-48
2022/08/13 11:46:34;;;;;;;4.78;3.35;;;;;;;30.13;24.42;100341.88;5033250;28;20029;-54